Ana Sayfa
METAR-TAF:

METAR-TAF

Havaalanları :

Şeremetyevo Uluslararası Havalimanı

Moskova-Şeremetyevo, Rusya

Enlem: 55-58N, Boylam: 037-25E, yükseklik: 190 m

Güncel hava durumu gözlemi

Rapor saat 19:00 UTC de 21 dakika önce yapıldı.
Rüzgar batıdan 4 kt
Sıcaklık 19°C
Nem 56%
Basınç 1020 hPa
Görüş mesafesi 10 km veya daha fazla
1500 m altında bulut yok ve kümülonimbus yok

METAR: UUEE 251900Z 28002MPS CAVOK 19/10 Q1020 R24C/CLRD62 R24L/CLRD62 NOSIG

Saat: 22:21 (19:21 UTC)

Tahmin

Rapor saat 16:58 UTC de 2 saat ve 23 dakika önce yapıldı.
Ayın 25'si saat 18 UTC'den ayın 26'si saat 18 UTC'ye kadar geçerli Tahmin
Rüzgar değişken yönden 2 kt
Görüş mesafesi 10 km veya daha fazla
4000 ft yükseklikte parçalı bulutlu
Dönüşüyor
ayın 26'si saat 06 UTC'den ayın 26'si saat 08 UTC'ye kadar
Rüzgar kuzeydan 12 kt

TAF: UUEE 251658Z 2518/2618 VRB01MPS 9999 SCT040 TX26/2612Z TN12/2601Z BECMG 2606/2608 01006MPS

4.000'den fazla havaalanı için hava durumu gözlemleri ve tahminleri (METAR ve TAF raporları).

Kullanılabilir istasyonlar harita üzerinde sarı ve kırmızı noktalarla gösterilir.

İstasyonun adını görmek için fareyi noktanın üzerinde gezdirin.

Sonrasında hava gözlem ve tahminlerini görmek için tıklayın.

Haritayı değiştirmek için: yaklaştırmak için siyah artı işaretli yeşil düğmeye ve uzaklaştırmak için de eksi işaretli düğmeye hızla tıklayın; bitişik haritalar için yeşil okları kullanın.


METAR-TAF: